All
Boggabri Airport YBOG Weather
There is no TAF data available at YBOG or any nearby airports.
There is no METAR data available at YBOG. Showing METAR data for YGDH (21 mi SE).
Recent GUH METAR history (no data for YBOG)
| Date | Time (AEST) | Flight Rules | Wind Dir. | Speed | Type | Height AGL (ft) | Visibility | Temp (°C) | Temp (°F) | Dew Point (°C) | Dew Point (°F) | Rel. Humid. | Pressure | Density Altitude | Remarks |
|---|---|---|---|---|---|---|---|---|---|---|---|---|---|---|---|
| 04-May | 02:00PM | n/a | 310° | 6 kt | Missing | 25° | 77° | 11° | 51° | 41% | 1016 mb | 1,981 ft | |||
| 04-May | 01:00PM | n/a | 320° | 5 kt | Missing | 24° | 75° | 11° | 51° | 44% | 1016 mb | 1,861 ft | |||
| 04-May | 12:00PM | n/a | 280° | 6 kt | Missing | 24° | 75° | 11° | 51° | 44% | 1017 mb | 1,831 ft | |||
| 04-May | 11:00AM | n/a | 250° | 5 kt | Missing | 23° | 73° | 11° | 51° | 47% | 1018 mb | 1,681 ft | |||
| 04-May | 10:00AM | n/a | 200° | 4 kt | Missing | 21° | 69° | 11° | 51° | 53% | 1018 mb | 1,441 ft | |||
| 04-May | 09:00AM | n/a | 140° | 5 kt | Missing | 21° | 69° | 12° | 53° | 56% | 1019 mb | 1,412 ft | |||
| 04-May | 08:00AM | n/a | 150° | 4 kt | Missing | 18° | 64° | 11° | 51° | 64% | 1018 mb | 1,081 ft | |||
| 04-May | 07:00AM | n/a | 150° | 6 kt | Missing | 16° | 60° | 11° | 51° | 72% | 1018 mb | 841 ft | |||
| 04-May | 06:00AM | n/a | 150° | 5 kt | Missing | 14° | 57° | 10° | 50° | 77% | 1017 mb | 631 ft | |||
| 04-May | 05:00AM | n/a | 140° | 5 kt | Missing | 14° | 57° | 9° | 48° | 72% | 1017 mb | 631 ft | |||
| 04-May | 04:00AM | n/a | 160° | 6 kt | Missing | 14° | 57° | 9° | 48° | 72% | 1017 mb | 631 ft | |||
| 04-May | 03:00AM | n/a | 160° | 5 kt | Missing | 13° | 55° | 8° | 46° | 72% | 1017 mb | 511 ft | |||
| 04-May | 02:00AM | n/a | 150° | 4 kt | Missing | 12° | 53° | 8° | 46° | 76% | 1018 mb | 361 ft | |||
| 04-May | 01:00AM | n/a | 160° | 6 kt | Missing | 13° | 55° | 8° | 46° | 72% | 1018 mb | 481 ft | |||
| 04-May | 12:00AM | n/a | 140° | 6 kt | Missing | 13° | 55° | 7° | 44° | 67% | 1018 mb | 481 ft | |||
| 03-May | 11:00PM | n/a | 190° | 4 kt | Missing | 13° | 55° | 7° | 44° | 67% | 1019 mb | 452 ft | |||
| 03-May | 10:00PM | n/a | 310° | 2 kt | Missing | 13° | 55° | 6° | 42° | 62% | 1019 mb | 452 ft | |||
| 03-May | 09:00PM | n/a | 80° | 4 kt | Missing | 14° | 57° | 7° | 44° | 63% | 1018 mb | 601 ft | |||
| 03-May | 08:00PM | n/a | 50° | 3 kt | Missing | 15° | 59° | 7° | 44° | 59% | 1018 mb | 721 ft | |||
| 03-May | 07:00PM | n/a | 110° | 3 kt | Missing | 16° | 60° | 6° | 42° | 51% | 1017 mb | 871 ft | |||
| 03-May | 06:00PM | n/a | 120° | 3 kt | Missing | 19° | 66° | 6° | 42° | 43% | 1017 mb | 1,231 ft | |||
| 03-May | 05:00PM | n/a | 120° | 5 kt | Missing | 24° | 75° | 6° | 42° | 31% | 1017 mb | 1,831 ft | |||
| 03-May | 04:00PM | n/a | 60° | 2 kt | Missing | 27° | 80° | 7° | 44° | 28% | 1017 mb | 2,191 ft | |||
| 03-May | 03:00PM | n/a | 50° | 5 kt | Missing | 27° | 80° | 8° | 46° | 30% | 1017 mb | 2,191 ft |
Login
| Your browser is unsupported. upgrade your browser |
